• Join FlightAware (Why Join?)
  • Login
  • US Flag 
07:36PM EDT


 

Airport Tracker/Info


-or-


 

Live Flight TrackerFlight Track Log ✈ N53NW ✈ 25-Oct-2013 ✈ KLEX - KMDW

Flight Track Log - Related Links

Times and Time Zones

All times are in EDT time to prevent confusion due to time zone crossing. See the N53NW flight status page for this flight to view local times or setup timezone preferences in your user account.

Time Position Orientation Groundspeed Altitude Reporting Facility
EDT Latitude Longitude Course Direction KTS MPH feet Rate Location/Type
10:20AM 38.0036 -84.6403 288° West 234 269 3,300  Level Indianapolis Center
10:21AM 37.9656 -84.7083 235° Southwest 246 283 8,400 3,360 Climbing Indianapolis Center
10:22AM 37.9225 -84.7994 239° Southwest 258 297 10,400 1,920 Climbing Indianapolis Center
10:23AM 37.8814 -84.8833 238° Southwest 275 316 12,400 1,320 Climbing Indianapolis Center
10:24AM 37.8911 -84.9769 278° West 288 331 13,200 1,200 Climbing Indianapolis Center
10:25AM 37.9225 -85.0692 293° West 284 327 14,900 2,100 Climbing Indianapolis Center
10:26AM 38.4537 -84.9385 288° West  Level Estimated
10:26AM 37.9550 -85.1575 295° West 279 321 17,600  Level Indianapolis Center
10:27AM 38.0239 -85.2131 328° Northwest 261 300 20,400 2,640 Climbing Indianapolis Center
10:28AM 38.0942 -85.2361 346° North 262 302 23,100 2,640 Climbing Indianapolis Center
10:30AM 38.1633 -85.2594 345° North 258 297 25,900 2,340 Climbing Indianapolis Center
10:31AM 38.2317 -85.2808 346° North 253 291 28,000 960 Climbing Indianapolis Center
10:32AM 38.3106 -85.3086 345° North 290 334 28,000  Level Indianapolis Center
10:33AM 38.3969 -85.3369 346° North 315 362 28,000  Level Indianapolis Center
10:34AM 38.4825 -85.3650 346° North 317 365 28,000  Level Indianapolis Center
10:35AM 38.5847 -85.3981 346° North 315 362 28,000  Level Indianapolis Center
10:36AM 38.6614 -85.4236 345° North 314 361 28,000  Level Indianapolis Center
10:37AM 38.7461 -85.4514 346° North 315 362 28,000 -360 Level Indianapolis Center
10:38AM 38.8458 -85.4850 345° North 312 359 27,300 -1,020 Descending Indianapolis Center
10:39AM 38.9308 -85.5131 346° North 315 362 26,000 -660 Descending Indianapolis Center
10:40AM 39.0111 -85.5400 345° North 303 349 26,000  Level Indianapolis Center
10:41AM 39.0911 -85.5672 345° North 300 345 26,000  Level Indianapolis Center
10:42AM 39.1731 -85.5944 346° North 305 351 26,000  Level Indianapolis Center
10:43AM 39.2547 -85.6214 346° North 305 351 26,000  Level Indianapolis Center
10:44AM 39.3544 -85.6553 345° North 309 356 26,000  Level Indianapolis Center
10:45AM 39.4361 -85.6825 346° North 306 352 26,000 -360 Level Indianapolis Center
10:46AM 39.5181 -85.7103 345° North 306 352 25,300 -1,020 Descending Indianapolis Center
10:47AM 39.5972 -85.7372 345° North 300 345 24,000 -660 Descending Indianapolis Center
10:48AM 39.6753 -85.7631 346° North 293 337 24,000  Level Indianapolis Center
10:49AM 39.7717 -85.7964 345° North 300 345 24,000  Level Indianapolis Center
10:50AM 39.8506 -85.8322 341° North 302 348 24,000  Level Indianapolis Center
10:51AM 39.9286 -85.8714 339° North 303 349 24,000  Level Indianapolis Center
10:52AM 40.0067 -85.9092 340° North 301 346 24,000  Level Indianapolis Center
10:53AM 40.1006 -85.9556 339° North 303 349 24,000  Level Indianapolis Center
10:54AM 40.1789 -85.9922 340° North 304 350 24,000 -420 Level Chicago Center
10:55AM 40.2725 -86.0397 339° North 303 349 23,100 -1,020 Descending Chicago Center
10:57AM 40.3506 -86.0783 339° North 303 349 21,900 -1,260 Descending Chicago Center
10:58AM 40.4267 -86.1169 339° North 296 341 20,600 -1,260 Descending Chicago Center
10:59AM 40.5028 -86.1550 339° North 295 339 19,300 -1,260 Descending Chicago Center
11:00AM 40.5761 -86.1939 338° Northwest 288 331 18,100 -960 Descending Chicago Center
11:01AM 40.6494 -86.2292 340° North 283 326 17,400 -1,080 Descending Chicago Center
11:02AM 40.7331 -86.2714 339° North 286 329 15,900 -1,320 Descending Chicago Center
11:03AM 40.8092 -86.3092 339° North 292 336 14,700 -1,200 Descending Chicago Center
11:04AM 40.8842 -86.3483 338° Northwest 289 333 13,500 -1,260 Descending Chicago Center
11:05AM 40.9739 -86.3944 339° North 288 331 12,100 -1,260 Descending Chicago Center
11:06AM 41.0408 -86.4436 331° Northwest 283 326 11,000 -540 Descending Chicago Center
11:07AM 41.0931 -86.5217 312° West 281 323 11,000 -540 Level Chicago Center
11:08AM 41.1444 -86.5981 312° West 277 319 10,000 -540 Descending Chicago Center
11:09AM 41.1947 -86.6728 312° West 271 312 10,000  Level Chicago Center
11:10AM 41.2525 -86.7600 311° West 277 319 10,000  Level Chicago Center
11:11AM 41.3042 -86.8383 311° West 281 323 10,000 -540 Level Chicago Center
11:12AM 41.3533 -86.9100 312° West 268 308 8,900 -1,020 Descending Chicago Center
11:13AM 41.3983 -86.9808 310° West 256 295 8,000 -960 Descending Chicago Center
11:14AM 41.4447 -87.0519 311° West 255 293 7,000 -1,020 Descending Chicago Center
11:15AM 41.5003 -87.1331 312° West 250 288 6,000 -540 Descending Chicago Center
11:16AM 41.5303 -87.2117 297° West 243 280 6,000 -300 Level Chicago Center
11:17AM 41.5592 -87.2928 295° West 243 280 5,500 -540 Descending Chicago Center
11:18AM 41.5886 -87.3739 296° West 244 281 5,000 -540 Descending Chicago Center
11:19AM 41.6172 -87.4544 295° West 243 280 4,500 -540 Descending Chicago Center
11:20AM 41.6464 -87.5364 295° West 224 258 4,000 -300 Descending Chicago Center
11:21AM 41.6717 -87.5956 300° West 200 230 4,000 -540 Level Chicago Center
11:22AM 41.7025 -87.6364 315° West 173 199 3,000 -960 Descending Chicago Center
11:23AM 41.7306 -87.6761 313° West 159 183 2,100 -780 Descending Chicago Center
11:24AM 41.7522 -87.7064 314° West 136 157 1,500 -600 Descending Chicago Center
11:25AM 41.7769 -87.7408 314° West 126 145 900 -600 Descending Chicago Center
11:27AM 41.7833 -87.7500 14° North  Level FlightAware Approximate